Time;durP1;ratioP1;P1;durP2;ratioP2;P2;SDS_P1;SDS_P2;PMS_P1;PMS_P2;Temp;Humidity;BMP_temperature;BMP_pressure;BME280_temperature;BME280_humidity;BME280_pressure;Samples;Min_cycle;Max_cycle;Signal;HPM_P1;HPM_P2
2021/12/20 00:02:14;;;;;;;30.35;17.77;;;2.30;87.00;;;0.24;100.00;96643.63;4988729;28;20062;-66
2021/12/20 00:04:40;;;;;;;29.25;17.45;;;2.30;87.00;;;0.25;100.00;96643.50;4955013;28;20042;-67
2021/12/20 00:07:06;;;;;;;27.23;16.73;;;2.30;87.00;;;0.27;100.00;96648.56;5007075;28;20049;-67
2021/12/20 00:09:32;;;;;;;31.33;17.10;;;2.40;87.10;;;0.28;100.00;96653.63;4990972;28;20084;-66
2021/12/20 00:11:57;;;;;;;27.67;17.00;;;2.40;87.10;;;0.31;100.00;96655.16;4973072;28;20038;-67
2021/12/20 00:14:23;;;;;;;30.45;16.98;;;2.50;86.90;;;0.33;100.00;96652.47;5008031;28;20044;-66
2021/12/20 00:16:49;;;;;;;30.45;18.13;;;2.50;86.70;;;0.36;100.00;96647.88;4978965;28;20038;-66
2021/12/20 00:19:15;;;;;;;30.05;17.50;;;2.60;86.60;;;0.39;100.00;96646.81;4975274;28;20041;-66
2021/12/20 00:21:41;;;;;;;29.95;17.05;;;2.60;86.50;;;0.40;100.00;96644.13;4995740;28;20216;-66
2021/12/20 00:24:07;;;;;;;26.95;16.60;;;2.60;86.50;;;0.42;100.00;96637.06;4994379;28;20122;-66
2021/12/20 00:26:33;;;;;;;29.17;17.27;;;2.60;86.50;;;0.42;100.00;96642.25;4977352;28;20037;-66
2021/12/20 00:28:58;;;;;;;29.05;17.17;;;2.60;86.40;;;0.44;100.00;96634.38;4975886;28;20108;-66
2021/12/20 00:31:24;;;;;;;31.20;18.23;;;2.60;86.20;;;0.45;100.00;96630.84;5010133;28;20076;-66
2021/12/20 00:33:50;;;;;;;29.58;17.70;;;2.50;86.20;;;0.42;100.00;96626.72;4996288;28;20062;-66
2021/12/20 00:36:21;;;;;;;27.88;16.55;;;2.40;86.60;;;0.41;100.00;96630.25;4999612;28;20073;-66
2021/12/20 00:41:31;;;;;;;29.60;18.17;;;2.40;86.90;;;0.39;100.00;96636.47;5009618;28;20045;-66
2021/12/20 00:43:57;;;;;;;30.17;17.45;;;2.40;87.00;;;0.38;100.00;96630.47;5009785;28;20073;-66
2021/12/20 00:46:23;;;;;;;32.58;17.35;;;2.40;86.90;;;0.39;100.00;96636.47;4993595;28;20030;-66
2021/12/20 00:48:48;;;;;;;31.10;17.38;;;2.40;86.90;;;0.38;100.00;96634.84;4999943;28;20042;-66
2021/12/20 00:51:14;;;;;;;29.48;17.42;;;2.50;87.00;;;0.38;100.00;96635.66;4992391;28;20049;-66
2021/12/20 00:53:40;;;;;;;28.67;16.73;;;2.40;86.80;;;0.40;100.00;96638.13;5008149;28;20438;-66
2021/12/20 00:56:05;;;;;;;32.38;17.30;;;2.50;86.80;;;0.40;100.00;96633.78;4992586;28;20042;-66
2021/12/20 00:58:31;;;;;;;29.52;17.58;;;2.50;86.70;;;0.39;100.00;96636.47;4976112;28;20105;-66
2021/12/20 01:00:58;;;;;;;29.63;17.38;;;2.40;86.80;;;0.39;100.00;96632.13;5004136;28;20061;-66
2021/12/20 01:03:24;;;;;;;32.58;17.50;;;2.40;86.70;;;0.39;100.00;96637.31;4988157;28;20034;-66
2021/12/20 01:05:50;;;;;;;28.83;16.58;;;2.40;87.00;;;0.41;100.00;96638.00;5000575;28;20041;-67
2021/12/20 01:08:17;;;;;;;28.42;16.90;;;2.50;86.90;;;0.42;100.00;96623.31;4958869;28;20108;-67
2021/12/20 01:10:46;;;;;;;30.27;17.30;;;2.60;86.90;;;0.42;100.00;96611.19;5000297;28;20116;-67
2021/12/20 01:13:13;;;;;;;31.42;16.92;;;2.50;86.70;;;0.42;100.00;96621.53;5022508;28;20088;-67
2021/12/20 01:15:45;;;;;;;31.20;16.92;;;2.50;86.80;;;0.43;100.00;96628.38;4992718;28;20094;-67
2021/12/20 01:18:11;;;;;;;32.35;17.65;;;2.60;86.90;;;0.44;100.00;96630.03;4999344;28;20046;-66
2021/12/20 01:20:37;;;;;;;30.10;17.85;;;2.60;86.80;;;0.46;100.00;96632.53;4995232;28;20049;-66
2021/12/20 01:23:02;;;;;;;30.60;17.60;;;2.60;86.70;;;0.45;100.00;96630.84;4993139;28;20034;-66
2021/12/20 01:25:28;;;;;;;30.83;18.17;;;2.50;86.90;;;0.45;100.00;96636.84;5008764;28;20030;-66
2021/12/20 01:27:54;;;;;;;30.92;17.85;;;2.60;86.90;;;0.47;100.00;96645.34;5007968;28;20064;-66
2021/12/20 01:30:22;;;;;;;31.02;17.23;;;2.60;86.70;;;0.46;100.00;96630.75;5008724;28;20129;-66
2021/12/20 01:32:48;;;;;;;29.55;16.13;;;2.60;86.50;;;0.49;100.00;96627.94;4993047;28;20034;-65
2021/12/20 01:35:14;;;;;;;30.63;16.90;;;2.60;86.50;;;0.50;100.00;96619.22;4992642;28;20466;-65
2021/12/20 01:37:40;;;;;;;30.35;18.25;;;2.60;86.50;;;0.50;100.00;96623.59;4992787;28;20041;-65
2021/12/20 01:40:07;;;;;;;31.42;17.48;;;2.60;86.80;;;0.51;100.00;96631.22;4979558;28;20030;-66
2021/12/20 01:42:34;;;;;;;29.23;17.10;;;2.70;86.70;;;0.54;100.00;96635.34;5005844;28;20034;-66
2021/12/20 01:45:02;;;;;;;30.13;17.45;;;2.70;86.50;;;0.53;100.00;96638.88;4992709;28;20495;-66
2021/12/20 01:47:31;;;;;;;30.38;18.45;;;2.70;86.40;;;0.54;100.00;96625.00;5005261;28;20049;-65
2021/12/20 01:50:12;;;;;;;30.95;17.55;;;2.70;86.40;;;0.52;100.00;96632.88;4992827;28;20026;-65
2021/12/20 01:52:43;;;;;;;32.75;17.23;;;2.60;86.50;;;0.52;100.00;96630.28;4991243;28;20042;-66
2021/12/20 01:55:19;;;;;;;32.17;17.23;;;2.60;86.50;;;0.50;100.00;96624.41;4974515;28;20026;-66
2021/12/20 01:57:45;;;;;;;31.63;17.98;;;2.40;86.90;;;0.50;100.00;96621.81;4973015;28;20489;-66
2021/12/20 02:00:15;;;;;;;33.28;17.80;;;2.50;87.20;;;0.49;100.00;96627.94;5004199;28;20505;-66
2021/12/20 02:02:43;;;;;;;30.08;17.15;;;2.50;86.90;;;0.49;100.00;96630.53;4973023;28;20046;-67
2021/12/20 02:05:23;;;;;;;30.63;17.73;;;2.50;86.60;;;0.49;100.00;96621.94;5004215;28;20540;-67
2021/12/20 02:08:02;;;;;;;32.28;17.38;;;2.50;86.90;;;0.51;100.00;96626.06;5010103;28;20034;-66
2021/12/20 02:10:28;;;;;;;32.63;18.08;;;2.60;86.90;;;0.51;100.00;96620.88;4996265;28;20533;-67
2021/12/20 02:12:54;;;;;;;32.47;17.27;;;2.60;86.90;;;0.48;100.00;96613.34;4991526;28;20056;-67
2021/12/20 02:15:19;;;;;;;32.58;18.35;;;2.50;86.90;;;0.51;100.00;96609.72;5004418;28;20128;-67
2021/12/20 02:17:46;;;;;;;34.70;18.65;;;2.60;86.80;;;0.51;100.00;96620.88;4972803;28;20166;-66
2021/12/20 02:20:30;;;;;;;32.90;18.20;;;2.60;86.80;;;0.54;100.00;96622.41;4991524;28;20038;-66
2021/12/20 02:22:59;;;;;;;34.42;17.55;;;2.70;86.30;;;0.54;100.00;96615.47;4975142;28;20121;-65
2021/12/20 02:25:26;;;;;;;34.03;18.23;;;2.70;86.70;;;0.56;100.00;96613.59;5004162;28;20458;-66
2021/12/20 02:27:52;;;;;;;31.42;18.40;;;2.70;86.40;;;0.58;100.00;96614.31;4972849;28;20053;-66
2021/12/20 02:38:30;;;;;;;33.00;18.20;;;2.60;86.50;;;0.53;100.00;96598.28;4975137;28;20426;-66
2021/12/20 02:41:03;;;;;;;35.47;18.15;;;2.50;86.70;;;0.55;100.00;96601.59;5008080;28;20034;-67
2021/12/20 02:43:30;;;;;;;31.90;18.30;;;2.60;86.60;;;0.54;100.00;96594.75;5007647;28;20038;-66
2021/12/20 02:46:00;;;;;;;33.75;18.80;;;2.60;86.50;;;0.57;100.00;96604.06;4972957;28;20121;-67
2021/12/20 02:48:26;;;;;;;36.00;19.02;;;2.70;86.50;;;0.59;100.00;96607.34;4991551;28;20076;-66
2021/12/20 02:50:55;;;;;;;34.78;18.52;;;2.70;86.30;;;0.60;100.00;96609.00;4991080;28;20041;-66
2021/12/20 02:53:21;;;;;;;33.95;18.15;;;2.60;86.40;;;0.59;100.00;96602.19;5006921;28;20455;-66
2021/12/20 02:55:47;;;;;;;35.90;18.77;;;2.60;86.40;;;0.56;100.00;96598.06;5000238;28;20030;-66
2021/12/20 02:58:13;;;;;;;33.15;19.02;;;2.50;86.80;;;0.54;100.00;96594.75;4993584;28;20050;-64
2021/12/20 03:00:39;;;;;;;32.92;19.05;;;2.50;86.90;;;0.55;100.00;96596.41;5007146;28;20029;-67
2021/12/20 03:03:04;;;;;;;34.58;18.35;;;2.60;87.00;;;0.55;100.00;96591.25;4995984;28;20038;-66
2021/12/20 03:05:30;;;;;;;35.55;19.77;;;2.60;86.90;;;0.56;100.00;96605.00;4999710;28;20137;-65
2021/12/20 03:07:56;;;;;;;48.35;25.73;;;2.60;87.00;;;0.56;100.00;96608.41;5007418;28;20455;-66
2021/12/20 03:10:23;;;;;;;41.20;24.02;;;2.60;87.00;;;0.58;100.00;96600.53;5022713;28;20029;-65
2021/12/20 03:12:50;;;;;;;40.22;21.67;;;2.70;86.80;;;0.58;100.00;96591.00;5007063;28;20426;-65
2021/12/20 03:15:21;;;;;;;36.78;20.17;;;2.60;86.70;;;0.59;100.00;96597.00;5003594;28;20041;-65
2021/12/20 03:17:47;;;;;;;35.58;19.58;;;2.60;86.50;;;0.57;100.00;96594.53;4972695;28;20046;-65
2021/12/20 03:20:15;;;;;;;37.85;20.15;;;2.60;86.90;;;0.58;100.00;96601.34;4975929;28;20450;-65
2021/12/20 03:22:44;;;;;;;35.17;18.42;;;2.70;86.80;;;0.59;100.00;96603.00;4990776;28;20366;-66
2021/12/20 03:25:10;;;;;;;37.17;19.77;;;2.60;86.70;;;0.63;100.00;96602.78;4987889;28;20038;-65
2021/12/20 03:27:36;;;;;;;48.42;23.77;;;2.80;86.80;;;0.64;100.00;96596.66;4996148;28;20037;-65
2021/12/20 03:30:03;;;;;;;44.03;25.63;;;2.80;87.00;;;0.64;100.00;96600.06;4971713;28;20095;-66
2021/12/20 03:32:29;;;;;;;37.25;20.25;;;2.70;87.00;;;0.68;100.00;96603.25;4974660;28;20250;-66
2021/12/20 03:34:55;;;;;;;35.97;19.17;;;2.80;86.60;;;0.68;100.00;96608.41;5006209;28;20057;-66
2021/12/20 03:37:20;;;;;;;39.42;19.63;;;2.80;86.40;;;0.67;100.00;96610.19;5007642;28;20481;-66
2021/12/20 03:39:46;;;;;;;40.63;22.63;;;2.70;86.40;;;0.67;100.00;96605.00;4993513;28;20042;-66
2021/12/20 03:42:12;;;;;;;38.92;21.20;;;2.80;86.50;;;0.69;100.00;96603.16;4978352;28;20042;-66
2021/12/20 03:44:43;;;;;;;34.20;18.67;;;2.80;86.70;;;0.70;100.00;96611.75;4980080;28;20036;-67
2021/12/20 03:47:09;;;;;;;33.40;18.33;;;2.80;86.30;;;0.73;100.00;96608.91;5007414;28;20562;-66
2021/12/20 03:49:35;;;;;;;35.92;19.40;;;2.90;86.20;;;0.73;100.00;96608.91;4990423;28;20109;-66
2021/12/20 03:52:01;;;;;;;38.17;21.05;;;2.80;86.20;;;0.75;100.00;96609.63;5011318;28;20053;-66
2021/12/20 03:54:27;;;;;;;45.75;24.70;;;3.00;86.10;;;0.77;100.00;96612.91;4992639;28;20049;-66
2021/12/20 03:56:52;;;;;;;37.03;20.63;;;3.00;86.40;;;0.77;100.00;96610.34;4991870;28;20039;-66
2021/12/20 03:59:18;;;;;;;35.33;19.08;;;2.90;86.30;;;0.79;100.00;96603.28;4991958;28;20454;-66
2021/12/20 04:01:44;;;;;;;36.00;19.02;;;2.90;86.20;;;0.78;100.00;96601.63;4992838;28;20053;-66
2021/12/20 04:04:09;;;;;;;33.58;19.13;;;2.80;86.30;;;0.79;100.00;96600.69;4993921;28;20038;-67
2021/12/20 04:06:36;;;;;;;40.85;21.85;;;2.90;86.20;;;0.80;100.00;96617.88;4994711;28;20038;-66
2021/12/20 04:09:03;;;;;;;39.28;22.70;;;2.90;86.20;;;0.82;100.00;96615.97;4976333;28;20117;-67
2021/12/20 04:11:28;;;;;;;37.25;21.15;;;3.00;86.30;;;0.83;100.00;96607.28;5002363;28;20085;-66
2021/12/20 04:13:56;;;;;;;34.83;19.35;;;3.00;86.00;;;0.85;100.00;96602.78;5011034;28;20528;-66
2021/12/20 04:16:22;;;;;;;36.78;20.08;;;3.00;85.80;;;0.86;100.00;96602.69;4996532;28;20494;-66
2021/12/20 04:18:48;;;;;;;35.28;19.02;;;3.00;85.70;;;0.87;100.00;96601.72;4989352;28;20136;-66
2021/12/20 04:21:14;;;;;;;33.92;18.98;;;3.10;85.50;;;0.87;100.00;96606.09;5004157;28;20101;-66
2021/12/20 04:23:39;;;;;;;31.48;18.80;;;3.10;85.40;;;0.89;100.00;96610.22;4994289;28;20129;-66
2021/12/20 04:26:05;;;;;;;34.97;19.73;;;3.10;85.50;;;0.87;100.00;96611.28;4999312;28;20378;-66
2021/12/20 04:28:31;;;;;;;38.45;21.10;;;3.10;85.50;;;0.90;100.00;96621.38;4995217;28;20030;-67
2021/12/20 04:30:57;;;;;;;36.78;20.77;;;3.10;85.70;;;0.90;100.00;96621.38;4989015;28;20067;-66
2021/12/20 04:33:22;;;;;;;38.38;21.50;;;3.10;85.60;;;0.91;100.00;96623.06;5005594;28;20034;-72
2021/12/20 04:35:48;;;;;;;35.00;19.50;;;3.10;85.50;;;0.89;100.00;96628.34;4991530;28;20027;-73
2021/12/20 04:38:14;;;;;;;33.25;18.58;;;3.00;85.30;;;0.90;100.00;96639.53;4978557;28;20038;-75
2021/12/20 04:40:40;;;;;;;36.33;19.02;;;3.00;85.50;;;0.87;100.00;96632.00;4994819;28;20034;-74
2021/12/20 04:43:06;;;;;;;31.02;18.33;;;2.90;85.80;;;0.88;100.00;96631.88;5009496;28;20476;-72
2021/12/20 04:45:32;;;;;;;33.63;18.55;;;3.10;85.70;;;0.90;100.00;96631.75;5008911;28;20037;-66
2021/12/20 04:47:57;;;;;;;32.80;18.60;;;3.10;85.50;;;0.90;100.00;96642.13;4991957;28;20035;-66
2021/12/20 04:50:24;;;;;;;33.85;19.30;;;3.00;85.60;;;0.89;100.00;96630.94;5010539;28;20049;-66
2021/12/20 04:52:51;;;;;;;34.92;18.90;;;3.10;85.70;;;0.93;100.00;96641.91;4990868;28;20499;-67
2021/12/20 04:55:16;;;;;;;35.20;19.35;;;3.10;85.60;;;0.94;100.00;96648.72;5007813;28;20034;-66
2021/12/20 04:57:43;;;;;;;35.65;19.27;;;3.10;85.40;;;0.95;100.00;96644.38;5006274;28;20096;-67
2021/12/20 05:00:13;;;;;;;37.15;19.35;;;3.10;85.40;;;0.97;100.00;96647.66;4994281;28;20033;-66
2021/12/20 05:02:39;;;;;;;35.03;19.38;;;3.20;85.20;;;0.97;100.00;96648.50;4986316;28;20453;-67
2021/12/20 05:05:05;;;;;;;36.75;19.33;;;3.10;85.30;;;0.99;100.00;96650.97;5004405;28;20042;-67
2021/12/20 05:07:31;;;;;;;34.97;19.23;;;3.10;85.20;;;1.00;100.00;96639.66;4993356;28;20041;-66
2021/12/20 05:10:01;;;;;;;33.67;18.92;;;3.10;85.00;;;0.97;100.00;96640.72;5009993;28;20140;-66
2021/12/20 05:12:26;;;;;;;36.33;20.60;;;3.10;85.20;;;0.97;100.00;96648.50;4974335;28;20175;-66
2021/12/20 05:14:52;;;;;;;36.03;19.92;;;3.10;85.50;;;1.00;100.00;96643.09;4992664;28;20035;-66
2021/12/20 05:17:18;;;;;;;38.95;21.33;;;3.10;85.20;;;0.99;100.00;96646.63;4988773;28;20061;-66
2021/12/20 05:19:44;;;;;;;38.08;19.38;;;3.10;85.40;;;0.99;100.00;96651.78;4996145;28;20042;-66
2021/12/20 05:22:10;;;;;;;34.60;19.42;;;3.10;85.50;;;0.97;100.00;96648.50;4988161;28;20034;-66
2021/12/20 05:24:39;;;;;;;35.60;18.60;;;3.10;85.50;;;0.98;100.00;96657.91;4974130;28;20066;-66
2021/12/20 05:27:05;;;;;;;35.90;18.92;;;3.10;85.30;;;0.98;100.00;96657.91;4990918;28;20039;-66
2021/12/20 05:29:31;;;;;;;34.47;19.60;;;3.10;85.10;;;0.97;100.00;96651.09;4994136;28;20431;-66
2021/12/20 05:31:58;;;;;;;35.53;19.17;;;3.10;85.30;;;0.98;100.00;96649.31;4987968;28;20034;-66
2021/12/20 05:34:24;;;;;;;40.38;20.40;;;3.10;85.20;;;0.98;100.00;96650.16;4991002;28;20088;-67
2021/12/20 05:36:49;;;;;;;33.30;18.67;;;3.10;85.40;;;0.97;100.00;96645.91;4992138;28;20458;-66
2021/12/20 05:39:15;;;;;;;38.30;20.55;;;3.10;85.50;;;0.96;100.00;96649.44;4978773;28;20076;-66
2021/12/20 05:41:41;;;;;;;36.85;19.92;;;3.10;85.50;;;0.93;100.00;96647.09;4993751;28;20087;-66
2021/12/20 05:44:07;;;;;;;35.17;19.20;;;3.00;85.70;;;0.91;100.00;96648.97;4989953;28;20026;-67
2021/12/20 05:46:32;;;;;;;35.78;19.30;;;2.90;85.80;;;0.91;100.00;96646.38;4990180;28;20066;-71
2021/12/20 05:48:58;;;;;;;34.25;18.92;;;3.00;85.70;;;0.91;100.00;96654.16;5007560;28;20083;-71
2021/12/20 05:51:24;;;;;;;39.05;20.40;;;3.10;85.60;;;0.92;100.00;96653.22;4982138;28;20524;-73
2021/12/20 05:53:50;;;;;;;34.65;19.05;;;3.10;85.40;;;0.94;100.00;96653.91;4987322;28;20117;-70
2021/12/20 05:56:16;;;;;;;38.63;20.52;;;3.10;85.20;;;0.91;100.00;96648.97;4993611;28;20026;-70
2021/12/20 05:58:41;;;;;;;37.17;19.95;;;3.00;85.50;;;0.91;100.00;96659.34;4973131;28;20065;-70
2021/12/20 06:01:07;;;;;;;37.08;18.75;;;3.10;85.60;;;0.92;100.00;96658.38;4989929;28;20077;-71
2021/12/20 06:03:33;;;;;;;36.58;19.35;;;3.00;85.60;;;0.90;100.00;96655.06;4992774;28;20037;-72
2021/12/20 06:05:59;;;;;;;40.20;20.58;;;3.00;85.80;;;0.91;100.00;96669.69;5009448;28;20065;-68
2021/12/20 06:08:24;;;;;;;34.78;19.52;;;3.10;85.70;;;0.94;100.00;96663.44;5002741;28;20069;-68
2021/12/20 06:10:50;;;;;;;39.40;20.40;;;3.10;85.50;;;0.94;100.00;96664.28;4991204;28;20596;-65
2021/12/20 06:13:16;;;;;;;38.30;20.90;;;3.10;85.70;;;0.96;100.00;96664.97;5003924;28;20559;-68
2021/12/20 06:15:42;;;;;;;39.78;20.83;;;3.10;85.50;;;0.97;100.00;96664.03;5008987;28;20034;-68
2021/12/20 06:18:07;;;;;;;37.90;20.35;;;3.10;85.40;;;0.97;100.00;96668.41;4973985;28;20085;-67
2021/12/20 06:20:33;;;;;;;40.80;20.45;;;3.10;85.60;;;0.98;100.00;96673.47;5006969;28;20565;-67
2021/12/20 06:22:59;;;;;;;38.25;20.58;;;3.10;85.40;;;0.99;100.00;96674.28;4991306;28;20422;-68
2021/12/20 06:25:26;;;;;;;48.70;24.13;;;3.10;85.40;;;1.00;100.00;96668.97;4992407;28;20026;-68
2021/12/20 06:27:53;;;;;;;43.70;22.90;;;3.20;85.80;;;1.01;100.00;96675.81;5001400;28;20063;-67
2021/12/20 06:30:18;;;;;;;42.83;21.30;;;3.10;85.70;;;1.01;100.00;96681.00;4986788;28;20050;-69
2021/12/20 06:32:53;;;;;;;40.40;20.48;;;3.20;85.50;;;1.04;100.00;96685.94;5024619;27;20388;-67
2021/12/20 06:35:18;;;;;;;43.30;21.42;;;3.20;85.40;;;1.06;100.00;96668.50;4991444;28;20109;-67
2021/12/20 06:37:48;;;;;;;40.20;21.63;;;3.20;85.20;;;1.07;100.00;96677.94;4988911;28;20127;-68
2021/12/20 06:40:14;;;;;;;41.20;21.15;;;3.30;85.10;;;1.07;100.00;96680.53;5004854;28;20030;-68
2021/12/20 06:42:40;;;;;;;39.00;20.85;;;3.20;85.20;;;1.07;100.00;96688.28;5009222;28;20041;-69
2021/12/20 06:45:06;;;;;;;39.00;22.23;;;3.20;85.30;;;1.06;100.00;96685.81;5008400;28;20527;-68
2021/12/20 06:47:34;;;;;;;42.22;21.45;;;3.10;85.50;;;1.07;100.00;96701.25;5004453;28;20111;-69
2021/12/20 06:49:59;;;;;;;41.88;20.58;;;3.20;85.40;;;1.08;100.00;96696.88;4988952;28;20038;-67
2021/12/20 06:52:25;;;;;;;37.42;20.63;;;3.10;85.30;;;1.05;100.00;96697.94;5006141;28;20037;-68
2021/12/20 06:54:52;;;;;;;36.60;19.08;;;3.10;85.50;;;1.05;100.00;96691.94;5004650;28;20039;-68
2021/12/20 06:57:20;;;;;;;34.88;19.27;;;3.00;85.50;;;1.04;100.00;96693.72;4999555;28;20037;-68
2021/12/20 06:59:46;;;;;;;34.00;19.23;;;3.10;85.70;;;1.03;100.00;96697.25;5005808;28;20113;-68
2021/12/20 07:02:11;;;;;;;33.85;20.15;;;3.10;85.70;;;1.07;100.00;96696.06;5006517;28;20033;-68
2021/12/20 07:04:37;;;;;;;40.63;20.83;;;3.10;85.40;;;1.06;100.00;96699.59;5017522;28;20084;-68
2021/12/20 07:07:03;;;;;;;37.15;19.25;;;3.10;85.70;;;1.08;100.00;96702.06;5001046;28;20042;-68
2021/12/20 07:09:29;;;;;;;39.20;20.02;;;3.10;85.50;;;1.07;100.00;96701.25;4971907;28;20069;-64
2021/12/20 07:11:54;;;;;;;35.55;20.20;;;3.20;85.60;;;1.08;100.00;96702.91;5018097;28;20026;-67
2021/12/20 07:14:20;;;;;;;36.55;20.10;;;3.20;85.60;;;1.08;100.00;96697.72;5005547;28;20037;-68
2021/12/20 07:16:46;;;;;;;38.83;20.92;;;3.20;85.60;;;1.10;100.00;96687.22;4988634;28;20089;-68
2021/12/20 07:19:12;;;;;;;38.08;20.60;;;3.30;85.40;;;1.11;100.00;96696.66;5008046;28;20026;-69
2021/12/20 07:21:37;;;;;;;38.53;20.17;;;3.30;85.20;;;1.12;100.00;96699.13;4986750;28;20133;-67
2021/12/20 07:24:03;;;;;;;37.45;20.08;;;3.30;85.30;;;1.12;100.00;96699.13;5004764;28;20038;-67
2021/12/20 07:26:30;;;;;;;42.45;21.92;;;3.30;85.10;;;1.14;100.00;96699.88;5021414;28;20032;-66
2021/12/20 07:28:56;;;;;;;37.33;20.05;;;3.30;85.10;;;1.13;100.00;96703.41;5002549;28;20105;-69
2021/12/20 07:31:21;;;;;;;36.97;20.25;;;3.20;85.30;;;1.14;100.00;96699.88;5002178;28;20065;-67
2021/12/20 07:33:48;;;;;;;34.97;19.35;;;3.30;85.30;;;1.15;100.00;96704.09;4988156;28;20069;-68
2021/12/20 07:36:15;;;;;;;38.95;19.23;;;3.30;85.20;;;1.15;100.00;96709.28;5004765;28;20037;-66
2021/12/20 07:38:41;;;;;;;35.00;19.30;;;3.30;85.30;;;1.18;100.00;96711.63;5003430;28;20113;-69
2021/12/20 07:41:07;;;;;;;34.78;18.80;;;3.40;85.10;;;1.19;100.00;96718.47;4999326;28;20030;-68
2021/12/20 07:43:32;;;;;;;33.50;19.13;;;3.40;85.10;;;1.21;100.00;96719.19;4971519;28;20568;-68
2021/12/20 07:45:58;;;;;;;36.45;19.48;;;3.40;85.10;;;1.23;100.00;96727.66;4982711;28;20524;-69
2021/12/20 07:48:24;;;;;;;34.17;19.40;;;3.50;84.60;;;1.23;100.00;96722.47;4989935;28;20058;-68
2021/12/20 07:50:51;;;;;;;40.53;20.90;;;3.50;84.90;;;1.25;100.00;96719.75;5000092;28;20049;-68
2021/12/20 07:53:17;;;;;;;40.35;21.70;;;3.50;84.80;;;1.27;100.00;96727.41;4990950;28;20481;-68
2021/12/20 07:55:43;;;;;;;37.67;20.10;;;3.50;84.70;;;1.30;100.00;96724.59;4974877;28;20395;-66
2021/12/20 07:58:08;;;;;;;34.13;19.48;;;3.60;84.50;;;1.32;100.00;96720.13;4990419;28;20037;-63
2021/12/20 08:00:34;;;;;;;35.78;19.98;;;3.60;84.50;;;1.32;100.00;96718.34;4981713;28;20030;-68
2021/12/20 08:03:00;;;;;;;34.95;19.73;;;3.50;84.30;;;1.29;100.00;96721.19;4993877;28;20026;-65
2021/12/20 08:05:27;;;;;;;37.08;19.73;;;3.40;84.60;;;1.29;100.00;96722.94;4977831;28;20038;-64
2021/12/20 08:07:53;;;;;;;37.60;20.25;;;3.50;84.70;;;1.31;100.00;96724.47;5009860;28;20434;-69
2021/12/20 08:10:20;;;;;;;37.63;20.20;;;3.40;84.70;;;1.32;100.00;96720.13;4991146;28;20034;-68
2021/12/20 08:12:46;;;;;;;40.80;20.95;;;3.50;84.50;;;1.33;100.00;96724.34;4976850;28;20034;-67
2021/12/20 08:15:12;;;;;;;37.97;19.10;;;3.50;84.40;;;1.34;100.00;96715.63;4973234;28;20046;-67
2021/12/20 08:17:38;;;;;;;35.78;19.63;;;3.60;84.60;;;1.36;100.00;96730.16;4977624;28;20506;-66
2021/12/20 08:20:20;;;;;;;37.67;20.30;;;3.60;84.50;;;1.38;100.00;96719.66;4990624;28;20154;-66
2021/12/20 08:22:46;;;;;;;37.30;20.15;;;3.60;84.30;;;1.39;100.00;96732.50;4990406;28;20062;-67
2021/12/20 08:25:12;;;;;;;37.33;19.83;;;3.60;84.40;;;1.41;100.00;96727.22;4958509;28;20049;-67
2021/12/20 08:27:38;;;;;;;35.47;20.05;;;3.60;84.30;;;1.43;100.00;96733.09;4963602;28;20827;-66
2021/12/20 08:30:05;;;;;;;37.05;19.67;;;3.70;84.40;;;1.46;100.00;96732.88;5009722;28;20084;-67
2021/12/20 08:32:31;;;;;;;36.17;19.77;;;3.70;84.30;;;1.48;100.00;96730.97;4991767;28;20037;-66
2021/12/20 08:34:57;;;;;;;36.10;19.10;;;3.70;84.00;;;1.51;100.00;96730.75;4991488;28;20030;-69
2021/12/20 08:37:22;;;;;;;31.92;18.38;;;3.80;84.10;;;1.51;100.00;96734.16;4992509;28;20026;-64
2021/12/20 08:39:48;;;;;;;37.58;19.58;;;3.80;83.90;;;1.53;100.00;96734.03;4988500;28;20111;-66
2021/12/20 08:42:14;;;;;;;39.63;19.90;;;3.80;84.10;;;1.57;100.00;96739.81;4991091;28;20486;-67
2021/12/20 08:44:40;;;;;;;35.83;19.33;;;3.90;83.90;;;1.58;100.00;96737.09;4992583;28;20053;-68
2021/12/20 08:47:06;;;;;;;34.08;18.58;;;3.90;83.70;;;1.60;100.00;96737.81;4990031;28;20449;-68
2021/12/20 08:49:31;;;;;;;38.35;20.35;;;3.80;83.50;;;1.62;100.00;96735.94;4999842;28;20037;-69
2021/12/20 08:51:58;;;;;;;40.10;21.23;;;3.90;83.90;;;1.66;100.00;96728.75;4991213;28;20402;-67
2021/12/20 08:54:27;;;;;;;36.78;19.80;;;4.00;83.60;;;1.70;100.00;96730.16;5004576;28;20075;-67
2021/12/20 08:56:53;;;;;;;36.15;20.60;;;4.10;83.40;;;1.73;100.00;96740.28;4975406;28;20139;-65
2021/12/20 08:59:18;;;;;;;34.08;19.05;;;4.00;83.60;;;1.77;100.00;96745.09;4983028;28;20480;-66
2021/12/20 09:01:44;;;;;;;35.00;19.92;;;4.10;83.40;;;1.79;100.00;96739.81;4988362;28;20495;-66
2021/12/20 09:04:10;;;;;;;32.83;18.83;;;4.10;83.30;;;1.82;100.00;96748.19;4991103;28;20038;-67
2021/12/20 09:06:39;;;;;;;34.53;19.77;;;4.10;83.00;;;1.87;100.00;96742.66;4978223;28;20129;-66
2021/12/20 09:09:09;;;;;;;37.00;19.90;;;4.20;82.70;;;1.93;100.00;96746.53;4989919;28;20073;-71
2021/12/20 09:11:34;;;;;;;35.55;20.58;;;4.30;82.80;;;1.97;100.00;96740.16;4975826;28;20038;-68
2021/12/20 09:14:00;;;;;;;35.75;20.42;;;4.40;82.60;;;2.03;99.83;96742.25;5005157;28;20038;-67
2021/12/20 09:16:26;;;;;;;33.85;19.35;;;4.40;82.30;;;2.07;99.87;96747.09;5003324;28;20453;-71
2021/12/20 09:18:51;;;;;;;33.50;19.58;;;4.50;82.30;;;2.10;99.84;96751.22;4958015;28;20542;-71
2021/12/20 09:21:17;;;;;;;34.75;18.80;;;4.40;82.40;;;2.14;99.47;96750.03;4977992;28;20079;-65
2021/12/20 09:23:43;;;;;;;35.85;20.00;;;4.50;82.20;;;2.17;99.56;96749.78;4984339;28;20627;-67
2021/12/20 09:26:12;;;;;;;34.88;20.55;;;4.40;82.40;;;2.22;99.27;96750.25;4991223;28;20038;-69
2021/12/20 09:28:38;;;;;;;34.97;20.83;;;4.50;82.50;;;2.28;99.25;96747.19;4964754;28;20034;-66
2021/12/20 09:31:04;;;;;;;35.42;20.50;;;4.60;82.20;;;2.32;99.16;96742.56;4974731;28;20022;-66
2021/12/20 09:33:30;;;;;;;33.67;20.50;;;4.60;82.00;;;2.37;98.86;96754.22;4991460;28;20045;-67
2021/12/20 09:35:55;;;;;;;33.83;20.05;;;4.60;81.70;;;2.40;98.56;96742.75;4993168;28;20022;-68
2021/12/20 09:38:21;;;;;;;37.10;22.05;;;4.60;82.00;;;2.44;98.79;96752.78;4973459;28;20037;-68
2021/12/20 09:41:15;;;;;;;39.35;22.38;;;4.80;81.60;;;2.49;98.73;96754.19;4972865;28;20030;-68
2021/12/20 09:43:49;;;;;;;37.13;21.90;;;4.80;81.60;;;2.51;98.16;96753.13;4973696;28;20085;-68
2021/12/20 09:46:16;;;;;;;34.25;20.75;;;4.80;81.30;;;2.54;98.24;96752.06;4995995;28;20034;-67
2021/12/20 09:48:45;;;;;;;34.85;20.02;;;4.80;81.40;;;2.56;97.96;96744.97;4968804;28;20038;-71
2021/12/20 09:51:11;;;;;;;38.70;21.52;;;5.00;81.20;;;2.59;98.19;96747.31;5011606;28;20030;-66
2021/12/20 09:53:37;;;;;;;34.22;19.88;;;5.00;81.20;;;2.62;98.01;96755.69;4988997;28;20084;-69
2021/12/20 09:56:03;;;;;;;34.88;20.45;;;5.00;81.30;;;2.64;97.96;96747.75;4973674;28;20046;-68
2021/12/20 09:58:29;;;;;;;33.25;20.85;;;5.00;80.80;;;2.68;97.77;96756.94;5002182;28;20033;-68
2021/12/20 10:00:55;;;;;;;36.47;21.45;;;5.10;80.70;;;2.71;97.48;96754.09;4989261;28;20034;-67
2021/12/20 10:03:22;;;;;;;30.73;20.77;;;5.10;80.50;;;2.74;97.01;96748.69;4990404;28;20065;-66
2021/12/20 10:05:48;;;;;;;34.30;20.00;;;5.10;80.00;;;2.76;97.27;96749.38;4991461;28;20038;-65
2021/12/20 10:08:19;;;;;;;35.85;20.55;;;5.20;80.00;;;2.84;97.30;96751.34;4990383;28;20462;-69
2021/12/20 10:10:49;;;;;;;36.88;20.75;;;5.40;80.10;;;2.92;97.58;96749.75;4992280;28;20041;-69
2021/12/20 10:13:33;;;;;;;32.50;19.73;;;5.60;79.80;;;2.99;96.09;96744.91;4988712;28;20092;-66
2021/12/20 10:15:59;;;;;;;31.23;19.15;;;5.60;79.00;;;3.03;96.43;96754.09;4966611;28;20034;-67
2021/12/20 10:18:26;;;;;;;35.28;22.75;;;5.60;78.70;;;3.05;96.36;96753.00;4977950;28;20023;-68
2021/12/20 10:20:57;;;;;;;34.22;20.55;;;5.50;79.20;;;3.07;96.38;96751.09;4988709;28;20031;-62
2021/12/20 10:23:31;;;;;;;;;;;5.60;79.20;;;3.08;95.48;96752.75;4993513;28;20085;-72